sensor_id;sensor_type;location;lat;lon;timestamp;pressure;altitude;pressure_sealevel;temperature;humidity
60089;BME280;45961;53.574;55.878;2023-11-21T00:00:53;99436.06;;;0.50;75.98
60089;BME280;45961;53.574;55.878;2023-11-21T00:02:12;99432.50;;;0.45;75.91
60089;BME280;45961;53.574;55.878;2023-11-21T00:03:32;99429.78;;;0.40;75.85
60089;BME280;45961;53.574;55.878;2023-11-21T00:04:51;99418.81;;;0.43;75.55
60089;BME280;45961;53.574;55.878;2023-11-21T00:06:11;99424.78;;;0.43;75.36
60089;BME280;45961;53.574;55.878;2023-11-21T00:07:30;99432.41;;;0.43;75.70
60089;BME280;45961;53.574;55.878;2023-11-21T00:08:49;99422.16;;;0.40;75.97
60089;BME280;45961;53.574;55.878;2023-11-21T00:10:09;99417.69;;;0.35;75.87
60089;BME280;45961;53.574;55.878;2023-11-21T00:11:29;99408.53;;;0.40;75.64
60089;BME280;45961;53.574;55.878;2023-11-21T00:12:49;99402.56;;;0.39;75.36
60089;BME280;45961;53.574;55.878;2023-11-21T00:14:08;99397.38;;;0.36;75.68
60089;BME280;45961;53.574;55.878;2023-11-21T00:15:27;99400.56;;;0.31;75.54
60089;BME280;45961;53.574;55.878;2023-11-21T00:16:46;99385.41;;;0.34;75.36
60089;BME280;45961;53.574;55.878;2023-11-21T00:18:06;99387.25;;;0.38;75.23
60089;BME280;45961;53.574;55.878;2023-11-21T00:19:25;99377.88;;;0.37;75.04
60089;BME280;45961;53.574;55.878;2023-11-21T00:20:45;99370.28;;;0.38;74.78
60089;BME280;45961;53.574;55.878;2023-11-21T00:22:04;99368.56;;;0.37;74.81
60089;BME280;45961;53.574;55.878;2023-11-21T00:23:25;99362.06;;;0.45;74.88
60089;BME280;45961;53.574;55.878;2023-11-21T00:24:44;99377.34;;;0.45;74.78
60089;BME280;45961;53.574;55.878;2023-11-21T00:26:04;99367.03;;;0.42;74.55
60089;BME280;45961;53.574;55.878;2023-11-21T00:27:23;99373.06;;;0.44;74.53
60089;BME280;45961;53.574;55.878;2023-11-21T00:28:42;99369.59;;;0.42;74.24
60089;BME280;45961;53.574;55.878;2023-11-21T00:30:01;99373.44;;;0.55;74.28
60089;BME280;45961;53.574;55.878;2023-11-21T00:31:23;99376.91;;;0.57;74.24
60089;BME280;45961;53.574;55.878;2023-11-21T00:32:43;99382.06;;;0.59;74.17
60089;BME280;45961;53.574;55.878;2023-11-21T00:34:03;99382.09;;;0.60;74.25
60089;BME280;45961;53.574;55.878;2023-11-21T00:35:27;99378.78;;;0.63;74.09
60089;BME280;45961;53.574;55.878;2023-11-21T00:36:46;99388.94;;;0.61;73.93
60089;BME280;45961;53.574;55.878;2023-11-21T00:38:05;99386.44;;;0.63;73.88
60089;BME280;45961;53.574;55.878;2023-11-21T00:39:27;99388.16;;;0.64;73.73
60089;BME280;45961;53.574;55.878;2023-11-21T00:40:47;99390.81;;;0.67;73.67
60089;BME280;45961;53.574;55.878;2023-11-21T00:42:06;99395.09;;;0.68;73.84
60089;BME280;45961;53.574;55.878;2023-11-21T00:43:26;99397.75;;;0.71;73.73
60089;BME280;45961;53.574;55.878;2023-11-21T00:44:45;99390.22;;;0.74;73.82
60089;BME280;45961;53.574;55.878;2023-11-21T00:46:05;99387.78;;;0.77;74.08
60089;BME280;45961;53.574;55.878;2023-11-21T00:47:26;99389.38;;;0.73;74.10
60089;BME280;45961;53.574;55.878;2023-11-21T00:48:45;99372.41;;;0.74;74.31
60089;BME280;45961;53.574;55.878;2023-11-21T00:50:05;99368.88;;;0.70;74.40
60089;BME280;45961;53.574;55.878;2023-11-21T00:51:26;99366.19;;;0.66;74.61
60089;BME280;45961;53.574;55.878;2023-11-21T00:52:45;99353.28;;;0.61;74.76
60089;BME280;45961;53.574;55.878;2023-11-21T00:54:05;99351.75;;;0.66;75.05
60089;BME280;45961;53.574;55.878;2023-11-21T00:55:26;99348.25;;;0.63;75.51
60089;BME280;45961;53.574;55.878;2023-11-21T00:56:46;99351.59;;;0.62;76.08
60089;BME280;45961;53.574;55.878;2023-11-21T00:58:08;99356.69;;;0.62;76.39
60089;BME280;45961;53.574;55.878;2023-11-21T00:59:28;99352.34;;;0.59;76.62
60089;BME280;45961;53.574;55.878;2023-11-21T01:00:47;99349.88;;;0.61;76.41
60089;BME280;45961;53.574;55.878;2023-11-21T01:02:07;99353.22;;;0.60;76.38
60089;BME280;45961;53.574;55.878;2023-11-21T01:03:29;99349.78;;;0.58;76.50
60089;BME280;45961;53.574;55.878;2023-11-21T01:04:49;99341.47;;;0.63;76.71
60089;BME280;45961;53.574;55.878;2023-11-21T01:06:09;99338.06;;;0.63;77.00
60089;BME280;45961;53.574;55.878;2023-11-21T01:07:28;99328.69;;;0.62;76.84
60089;BME280;45961;53.574;55.878;2023-11-21T01:08:47;99320.19;;;0.61;77.02
60089;BME280;45961;53.574;55.878;2023-11-21T01:10:06;99314.28;;;0.62;76.89
60089;BME280;45961;53.574;55.878;2023-11-21T01:11:27;99315.84;;;0.59;77.04
60089;BME280;45961;53.574;55.878;2023-11-21T01:12:47;99321.31;;;0.69;77.22
60089;BME280;45961;53.574;55.878;2023-11-21T01:14:08;99329.59;;;0.64;77.44
60089;BME280;45961;53.574;55.878;2023-11-21T01:15:29;99327.41;;;0.74;77.63
60089;BME280;45961;53.574;55.878;2023-11-21T01:16:48;99328.50;;;0.81;77.65
60089;BME280;45961;53.574;55.878;2023-11-21T01:18:08;99327.47;;;0.76;77.46
60089;BME280;45961;53.574;55.878;2023-11-21T01:19:29;99324.16;;;0.79;77.02
60089;BME280;45961;53.574;55.878;2023-11-21T01:20:49;99306.38;;;0.80;76.89
60089;BME280;45961;53.574;55.878;2023-11-21T01:22:09;99302.78;;;0.73;76.91
60089;BME280;45961;53.574;55.878;2023-11-21T01:23:31;99290.19;;;0.78;77.18
60089;BME280;45961;53.574;55.878;2023-11-21T01:24:51;99290.91;;;0.74;77.52
60089;BME280;45961;53.574;55.878;2023-11-21T01:26:11;99292.69;;;0.77;77.75
60089;BME280;45961;53.574;55.878;2023-11-21T01:27:30;99285.13;;;0.80;77.99
60089;BME280;45961;53.574;55.878;2023-11-21T01:28:49;99280.75;;;0.76;78.17
60089;BME280;45961;53.574;55.878;2023-11-21T01:30:09;99282.44;;;0.75;78.08
60089;BME280;45961;53.574;55.878;2023-11-21T01:31:32;99280.91;;;0.80;78.34
60089;BME280;45961;53.574;55.878;2023-11-21T01:32:51;99279.00;;;0.73;78.13
60089;BME280;45961;53.574;55.878;2023-11-21T01:34:10;99275.66;;;0.76;78.39
60089;BME280;45961;53.574;55.878;2023-11-21T01:35:30;99278.28;;;0.77;78.50
60089;BME280;45961;53.574;55.878;2023-11-21T01:36:49;99263.84;;;0.78;78.52
60089;BME280;45961;53.574;55.878;2023-11-21T01:38:09;99268.97;;;0.79;78.67
60089;BME280;45961;53.574;55.878;2023-11-21T01:39:28;99258.75;;;0.78;78.57
60089;BME280;45961;53.574;55.878;2023-11-21T01:40:47;99263.75;;;0.74;79.06
60089;BME280;45961;53.574;55.878;2023-11-21T01:42:06;99259.78;;;0.84;79.00
60089;BME280;45961;53.574;55.878;2023-11-21T01:43:26;99264.00;;;0.82;79.23
60089;BME280;45961;53.574;55.878;2023-11-21T01:44:46;99258.28;;;0.89;79.10
60089;BME280;45961;53.574;55.878;2023-11-21T01:46:05;99267.94;;;0.99;78.89
60089;BME280;45961;53.574;55.878;2023-11-21T01:47:25;99261.84;;;0.94;78.91
60089;BME280;45961;53.574;55.878;2023-11-21T01:48:44;99268.56;;;0.92;79.01
60089;BME280;45961;53.574;55.878;2023-11-21T01:50:04;99253.25;;;0.92;79.40
60089;BME280;45961;53.574;55.878;2023-11-21T01:51:25;99244.88;;;0.95;79.30
60089;BME280;45961;53.574;55.878;2023-11-21T01:52:46;99249.91;;;0.93;79.15
60089;BME280;45961;53.574;55.878;2023-11-21T01:54:05;99244.25;;;1.02;78.96
60089;BME280;45961;53.574;55.878;2023-11-21T01:55:25;99237.50;;;1.04;78.52
60089;BME280;45961;53.574;55.878;2023-11-21T01:56:46;99240.00;;;1.03;78.54
60089;BME280;45961;53.574;55.878;2023-11-21T01:58:06;99222.03;;;0.98;78.70
60089;BME280;45961;53.574;55.878;2023-11-21T01:59:26;99226.19;;;0.96;78.44
60089;BME280;45961;53.574;55.878;2023-11-21T02:00:46;99231.66;;;1.07;78.59
60089;BME280;45961;53.574;55.878;2023-11-21T02:02:09;99227.53;;;1.12;78.20
60089;BME280;45961;53.574;55.878;2023-11-21T02:03:30;99230.19;;;1.15;78.20
60089;BME280;45961;53.574;55.878;2023-11-21T02:04:50;99219.19;;;1.16;77.98
60089;BME280;45961;53.574;55.878;2023-11-21T02:06:10;99228.75;;;1.23;77.83
60089;BME280;45961;53.574;55.878;2023-11-21T02:07:29;99221.91;;;1.22;77.63
60089;BME280;45961;53.574;55.878;2023-11-21T02:08:54;99218.53;;;1.23;77.63
60089;BME280;45961;53.574;55.878;2023-11-21T02:10:16;99216.97;;;1.27;77.36
60089;BME280;45961;53.574;55.878;2023-11-21T02:11:37;99218.81;;;1.32;77.18
60089;BME280;45961;53.574;55.878;2023-11-21T02:12:58;99218.53;;;1.23;76.92
60089;BME280;45961;53.574;55.878;2023-11-21T02:14:19;99216.09;;;1.26;76.84
60089;BME280;45961;53.574;55.878;2023-11-21T02:15:41;99216.13;;;1.28;76.77
60089;BME280;45961;53.574;55.878;2023-11-21T02:17:01;99218.75;;;1.29;76.45
60089;BME280;45961;53.574;55.878;2023-11-21T02:18:20;99219.84;;;1.37;76.13
60089;BME280;45961;53.574;55.878;2023-11-21T02:19:40;99214.66;;;1.36;76.24
60089;BME280;45961;53.574;55.878;2023-11-21T02:21:21;99204.56;;;1.39;76.44
60089;BME280;45961;53.574;55.878;2023-11-21T02:22:41;99207.22;;;1.42;76.61
60089;BME280;45961;53.574;55.878;2023-11-21T02:24:00;99202.16;;;1.43;76.46
60089;BME280;45961;53.574;55.878;2023-11-21T02:25:21;99200.44;;;1.42;76.04
60089;BME280;45961;53.574;55.878;2023-11-21T02:26:40;99200.41;;;1.41;75.95
60089;BME280;45961;53.574;55.878;2023-11-21T02:28:01;99198.72;;;1.41;75.98
60089;BME280;45961;53.574;55.878;2023-11-21T02:29:23;99186.13;;;1.47;75.68
60089;BME280;45961;53.574;55.878;2023-11-21T02:30:46;99186.09;;;1.46;75.74
60089;BME280;45961;53.574;55.878;2023-11-21T02:32:05;99190.25;;;1.44;75.86
60089;BME280;45961;53.574;55.878;2023-11-21T02:33:25;99188.00;;;1.53;76.01
60089;BME280;45961;53.574;55.878;2023-11-21T02:34:45;99189.75;;;1.56;75.61
60089;BME280;45961;53.574;55.878;2023-11-21T02:36:05;99188.84;;;1.54;75.33
60089;BME280;45961;53.574;55.878;2023-11-21T02:37:25;99182.16;;;1.57;75.29
60089;BME280;45961;53.574;55.878;2023-11-21T02:38:44;99183.19;;;1.64;75.34
60089;BME280;45961;53.574;55.878;2023-11-21T02:40:05;99179.81;;;1.65;75.12
60089;BME280;45961;53.574;55.878;2023-11-21T02:41:26;99177.94;;;1.59;74.76
60089;BME280;45961;53.574;55.878;2023-11-21T02:42:48;99171.22;;;1.61;74.81
60089;BME280;45961;53.574;55.878;2023-11-21T02:44:16;99171.38;;;1.67;74.87
60089;BME280;45961;53.574;55.878;2023-11-21T02:45:35;99167.19;;;1.69;74.61
60089;BME280;45961;53.574;55.878;2023-11-21T02:46:55;99162.91;;;1.68;74.42
60089;BME280;45961;53.574;55.878;2023-11-21T02:48:16;99164.56;;;1.66;74.56
60089;BME280;45961;53.574;55.878;2023-11-21T02:49:36;99163.84;;;1.72;74.96
60089;BME280;45961;53.574;55.878;2023-11-21T02:50:55;99156.03;;;1.66;74.95
60089;BME280;45961;53.574;55.878;2023-11-21T02:52:15;99156.88;;;1.65;74.98
60089;BME280;45961;53.574;55.878;2023-11-21T02:53:35;99158.75;;;1.72;74.79
60089;BME280;45961;53.574;55.878;2023-11-21T02:54:54;99162.31;;;1.77;75.11
60089;BME280;45961;53.574;55.878;2023-11-21T02:56:14;99150.44;;;1.79;75.13
60089;BME280;45961;53.574;55.878;2023-11-21T02:57:34;99149.66;;;1.82;75.20
60089;BME280;45961;53.574;55.878;2023-11-21T02:58:55;99145.44;;;1.82;75.13
60089;BME280;45961;53.574;55.878;2023-11-21T03:00:14;99141.75;;;1.72;75.08
60089;BME280;45961;53.574;55.878;2023-11-21T03:01:34;99134.84;;;1.68;75.45
60089;BME280;45961;53.574;55.878;2023-11-21T03:02:53;99130.78;;;1.77;75.54
60089;BME280;45961;53.574;55.878;2023-11-21T03:04:14;99136.81;;;1.79;75.60
60089;BME280;45961;53.574;55.878;2023-11-21T03:05:36;99131.84;;;1.83;75.41
60089;BME280;45961;53.574;55.878;2023-11-21T03:06:56;99131.75;;;1.80;75.03
60089;BME280;45961;53.574;55.878;2023-11-21T03:08:16;99131.06;;;1.86;75.03
60089;BME280;45961;53.574;55.878;2023-11-21T03:09:35;99132.66;;;1.82;75.12
60089;BME280;45961;53.574;55.878;2023-11-21T03:10:55;99131.91;;;1.86;75.29
60089;BME280;45961;53.574;55.878;2023-11-21T03:12:15;99128.56;;;1.89;75.39
60089;BME280;45961;53.574;55.878;2023-11-21T03:13:35;99122.03;;;1.98;75.63
60089;BME280;45961;53.574;55.878;2023-11-21T03:14:54;99125.41;;;1.97;75.81
60089;BME280;45961;53.574;55.878;2023-11-21T03:16:15;99124.66;;;2.02;76.22
60089;BME280;45961;53.574;55.878;2023-11-21T03:17:35;99114.50;;;2.05;76.22
60089;BME280;45961;53.574;55.878;2023-11-21T03:18:55;99103.31;;;1.98;76.52
60089;BME280;45961;53.574;55.878;2023-11-21T03:20:15;99110.69;;;1.89;77.13
60089;BME280;45961;53.574;55.878;2023-11-21T03:21:35;99097.19;;;1.91;77.30
60089;BME280;45961;53.574;55.878;2023-11-21T03:22:55;99101.63;;;2.00;77.16
60089;BME280;45961;53.574;55.878;2023-11-21T03:24:14;99099.19;;;2.05;76.72
60089;BME280;45961;53.574;55.878;2023-11-21T03:25:37;99101.63;;;1.98;76.67
60089;BME280;45961;53.574;55.878;2023-11-21T03:26:56;99099.94;;;2.01;76.82
60089;BME280;45961;53.574;55.878;2023-11-21T03:28:16;99105.13;;;2.02;77.04
60089;BME280;45961;53.574;55.878;2023-11-21T03:29:35;99108.59;;;2.06;77.32
60089;BME280;45961;53.574;55.878;2023-11-21T03:30:54;99100.13;;;2.07;77.64
60089;BME280;45961;53.574;55.878;2023-11-21T03:32:14;99107.78;;;2.07;77.77
60089;BME280;45961;53.574;55.878;2023-11-21T03:33:33;99101.84;;;2.08;77.71
60089;BME280;45961;53.574;55.878;2023-11-21T03:34:54;99103.63;;;2.10;77.73
60089;BME280;45961;53.574;55.878;2023-11-21T03:36:17;99095.09;;;2.10;77.53
60089;BME280;45961;53.574;55.878;2023-11-21T03:37:37;99095.97;;;2.12;77.59
60089;BME280;45961;53.574;55.878;2023-11-21T03:39:00;99095.13;;;2.11;77.61
60089;BME280;45961;53.574;55.878;2023-11-21T03:40:19;99094.22;;;2.09;77.97
60089;BME280;45961;53.574;55.878;2023-11-21T03:41:40;99086.44;;;2.05;78.43
60089;BME280;45961;53.574;55.878;2023-11-21T03:42:59;99081.31;;;2.03;78.62
60089;BME280;45961;53.574;55.878;2023-11-21T03:44:18;99083.00;;;2.03;78.65
60089;BME280;45961;53.574;55.878;2023-11-21T03:45:38;99083.09;;;2.07;78.60
60089;BME280;45961;53.574;55.878;2023-11-21T03:46:59;99079.69;;;2.07;78.55
60089;BME280;45961;53.574;55.878;2023-11-21T03:48:19;99073.84;;;2.11;78.48
60089;BME280;45961;53.574;55.878;2023-11-21T03:49:39;99078.19;;;2.15;78.56
60089;BME280;45961;53.574;55.878;2023-11-21T03:50:58;99074.69;;;2.10;78.49
60089;BME280;45961;53.574;55.878;2023-11-21T03:52:17;99087.56;;;2.16;78.44
60089;BME280;45961;53.574;55.878;2023-11-21T03:53:36;99081.50;;;2.11;78.44
60089;BME280;45961;53.574;55.878;2023-11-21T03:54:56;99080.81;;;2.18;78.46
60089;BME280;45961;53.574;55.878;2023-11-21T03:56:15;99079.16;;;2.20;78.66
60089;BME280;45961;53.574;55.878;2023-11-21T03:57:34;99075.63;;;2.15;78.71
60089;BME280;45961;53.574;55.878;2023-11-21T03:58:54;99083.22;;;2.12;78.96
60089;BME280;45961;53.574;55.878;2023-11-21T04:00:13;99068.75;;;2.12;78.85
60089;BME280;45961;53.574;55.878;2023-11-21T04:01:32;99068.06;;;2.18;78.78
60089;BME280;45961;53.574;55.878;2023-11-21T04:02:52;99066.31;;;2.17;78.36
60089;BME280;45961;53.574;55.878;2023-11-21T04:04:12;99065.41;;;2.13;78.13
60089;BME280;45961;53.574;55.878;2023-11-21T04:05:31;99070.63;;;2.19;78.01
60089;BME280;45961;53.574;55.878;2023-11-21T04:06:50;99058.84;;;2.25;78.20
60089;BME280;45961;53.574;55.878;2023-11-21T04:08:10;99060.63;;;2.27;78.01
60089;BME280;45961;53.574;55.878;2023-11-21T04:09:30;99055.47;;;2.26;77.79
60089;BME280;45961;53.574;55.878;2023-11-21T04:10:49;99066.56;;;2.26;77.84
60089;BME280;45961;53.574;55.878;2023-11-21T04:12:09;99072.34;;;2.20;77.90
60089;BME280;45961;53.574;55.878;2023-11-21T04:13:28;99065.44;;;2.16;78.08
60089;BME280;45961;53.574;55.878;2023-11-21T04:14:48;99069.88;;;2.22;77.98
60089;BME280;45961;53.574;55.878;2023-11-21T04:16:10;99063.00;;;2.21;78.01
60089;BME280;45961;53.574;55.878;2023-11-21T04:17:29;99057.97;;;2.24;78.13
60089;BME280;45961;53.574;55.878;2023-11-21T04:18:48;99059.69;;;2.25;77.96
60089;BME280;45961;53.574;55.878;2023-11-21T04:20:08;99061.34;;;2.21;77.96
60089;BME280;45961;53.574;55.878;2023-11-21T04:21:30;99052.94;;;2.27;77.53
60089;BME280;45961;53.574;55.878;2023-11-21T04:22:51;99061.53;;;2.29;77.07
60089;BME280;45961;53.574;55.878;2023-11-21T04:24:13;99056.47;;;2.32;76.94
60089;BME280;45961;53.574;55.878;2023-11-21T04:25:33;99054.81;;;2.34;76.68
60089;BME280;45961;53.574;55.878;2023-11-21T04:26:52;99056.53;;;2.35;76.68
60089;BME280;45961;53.574;55.878;2023-11-21T04:28:12;99060.78;;;2.33;76.44
60089;BME280;45961;53.574;55.878;2023-11-21T04:29:32;99059.09;;;2.35;76.54
60089;BME280;45961;53.574;55.878;2023-11-21T04:30:51;99063.31;;;2.33;76.50
60089;BME280;45961;53.574;55.878;2023-11-21T04:32:11;99049.75;;;2.36;76.57
60089;BME280;45961;53.574;55.878;2023-11-21T04:33:31;99051.59;;;2.41;76.85
60089;BME280;45961;53.574;55.878;2023-11-21T04:34:50;99051.59;;;2.41;76.80
60089;BME280;45961;53.574;55.878;2023-11-21T04:36:10;99050.78;;;2.44;76.93
60089;BME280;45961;53.574;55.878;2023-11-21T04:37:29;99047.13;;;2.33;77.12
60089;BME280;45961;53.574;55.878;2023-11-21T04:38:48;99047.13;;;2.33;77.19
60089;BME280;45961;53.574;55.878;2023-11-21T04:40:08;99054.81;;;2.34;77.11
60089;BME280;45961;53.574;55.878;2023-11-21T04:41:28;99054.66;;;2.28;77.26
60089;BME280;45961;53.574;55.878;2023-11-21T04:42:47;99058.06;;;2.27;77.36
60089;BME280;45961;53.574;55.878;2023-11-21T04:44:07;99053.03;;;2.30;77.39
60089;BME280;45961;53.574;55.878;2023-11-21T04:45:26;99044.53;;;2.31;77.24
60089;BME280;45961;53.574;55.878;2023-11-21T04:46:46;99043.53;;;2.25;77.05
60089;BME280;45961;53.574;55.878;2023-11-21T04:48:05;99038.41;;;2.25;77.42
60089;BME280;45961;53.574;55.878;2023-11-21T04:49:25;99036.03;;;2.32;77.55
60089;BME280;45961;53.574;55.878;2023-11-21T04:50:45;99031.09;;;2.38;77.49
60089;BME280;45961;53.574;55.878;2023-11-21T04:52:05;99026.69;;;2.33;77.54
60089;BME280;45961;53.574;55.878;2023-11-21T04:53:24;99019.75;;;2.27;77.76
60089;BME280;45961;53.574;55.878;2023-11-21T04:54:43;99029.25;;;2.33;77.64
60089;BME280;45961;53.574;55.878;2023-11-21T04:56:03;99023.28;;;2.32;77.71
60089;BME280;45961;53.574;55.878;2023-11-21T04:57:22;99019.19;;;2.39;77.59
60089;BME280;45961;53.574;55.878;2023-11-21T04:58:41;99028.47;;;2.37;77.49
60089;BME280;45961;53.574;55.878;2023-11-21T05:00:00;99017.63;;;2.45;76.99
60089;BME280;45961;53.574;55.878;2023-11-21T05:01:20;99018.69;;;2.55;76.23
60089;BME280;45961;53.574;55.878;2023-11-21T05:02:40;99026.25;;;2.51;76.05
60089;BME280;45961;53.574;55.878;2023-11-21T05:04:00;99023.00;;;2.58;75.93
60089;BME280;45961;53.574;55.878;2023-11-21T05:05:20;99021.25;;;2.57;75.62
60089;BME280;45961;53.574;55.878;2023-11-21T05:06:39;99024.66;;;2.57;75.53
60089;BME280;45961;53.574;55.878;2023-11-21T05:07:59;99018.00;;;2.62;75.52
60089;BME280;45961;53.574;55.878;2023-11-21T05:09:18;99021.41;;;2.63;75.62
60089;BME280;45961;53.574;55.878;2023-11-21T05:10:38;99021.50;;;2.67;75.90
60089;BME280;45961;53.574;55.878;2023-11-21T05:11:58;99022.19;;;2.60;75.65
60089;BME280;45961;53.574;55.878;2023-11-21T05:13:19;99023.97;;;2.64;75.45
60089;BME280;45961;53.574;55.878;2023-11-21T05:14:39;99025.69;;;2.64;75.37
60089;BME280;45961;53.574;55.878;2023-11-21T05:15:58;99024.81;;;2.62;75.30
60089;BME280;45961;53.574;55.878;2023-11-21T05:17:17;99031.59;;;2.61;75.72
60089;BME280;45961;53.574;55.878;2023-11-21T05:18:37;99030.75;;;2.62;75.82
60089;BME280;45961;53.574;55.878;2023-11-21T05:19:56;99027.31;;;2.60;75.71
60089;BME280;45961;53.574;55.878;2023-11-21T05:21:16;99030.63;;;2.56;75.70
60089;BME280;45961;53.574;55.878;2023-11-21T05:22:35;99029.94;;;2.63;75.62
60089;BME280;45961;53.574;55.878;2023-11-21T05:23:55;99030.97;;;2.73;75.45
60089;BME280;45961;53.574;55.878;2023-11-21T05:25:14;99014.69;;;2.68;75.21
60089;BME280;45961;53.574;55.878;2023-11-21T05:26:35;99013.84;;;2.69;75.17
60089;BME280;45961;53.574;55.878;2023-11-21T05:27:54;99023.22;;;2.68;75.45
60089;BME280;45961;53.574;55.878;2023-11-21T05:29:18;99020.72;;;2.71;76.00
60089;BME280;45961;53.574;55.878;2023-11-21T05:30:37;99006.25;;;2.72;76.16
60089;BME280;45961;53.574;55.878;2023-11-21T05:31:58;99009.59;;;2.68;76.06
60089;BME280;45961;53.574;55.878;2023-11-21T05:33:17;99013.09;;;2.73;75.99
60089;BME280;45961;53.574;55.878;2023-11-21T05:34:36;99011.56;;;2.81;75.76
60089;BME280;45961;53.574;55.878;2023-11-21T05:35:56;98995.50;;;2.87;75.61
60089;BME280;45961;53.574;55.878;2023-11-21T05:37:15;98996.34;;;2.87;75.54
60089;BME280;45961;53.574;55.878;2023-11-21T05:38:35;99006.81;;;2.98;75.59
60089;BME280;45961;53.574;55.878;2023-11-21T05:39:54;98996.72;;;3.06;75.43
60089;BME280;45961;53.574;55.878;2023-11-21T05:41:15;98990.03;;;3.12;74.99
60089;BME280;45961;53.574;55.878;2023-11-21T05:42:35;98988.38;;;3.16;74.64
60089;BME280;45961;53.574;55.878;2023-11-21T05:43:55;98984.22;;;3.21;74.37
60089;BME280;45961;53.574;55.878;2023-11-21T05:45:14;98994.50;;;3.22;74.10
60089;BME280;45961;53.574;55.878;2023-11-21T05:46:34;98974.06;;;3.26;74.30
60089;BME280;45961;53.574;55.878;2023-11-21T05:47:53;98980.06;;;3.26;74.15
60089;BME280;45961;53.574;55.878;2023-11-21T05:49:12;98975.03;;;3.32;74.02
60089;BME280;45961;53.574;55.878;2023-11-21T05:50:32;98983.63;;;3.36;73.79
60089;BME280;45961;53.574;55.878;2023-11-21T05:51:52;98985.44;;;3.41;73.53
60089;BME280;45961;53.574;55.878;2023-11-21T05:53:12;98982.84;;;3.40;73.22
60089;BME280;45961;53.574;55.878;2023-11-21T05:54:34;98986.31;;;3.42;73.24
60089;BME280;45961;53.574;55.878;2023-11-21T05:55:54;98976.97;;;3.44;72.92
60089;BME280;45961;53.574;55.878;2023-11-21T05:57:13;98980.53;;;3.54;72.78
60089;BME280;45961;53.574;55.878;2023-11-21T05:58:32;98973.81;;;3.59;72.82
60089;BME280;45961;53.574;55.878;2023-11-21T05:59:52;98971.28;;;3.60;72.79
60089;BME280;45961;53.574;55.878;2023-11-21T06:01:11;98965.31;;;3.61;72.76
60089;BME280;45961;53.574;55.878;2023-11-21T06:02:32;98968.00;;;3.69;72.82
60089;BME280;45961;53.574;55.878;2023-11-21T06:03:53;98967.22;;;3.73;72.75
60089;BME280;45961;53.574;55.878;2023-11-21T06:05:13;98961.22;;;3.72;72.67
60089;BME280;45961;53.574;55.878;2023-11-21T06:06:32;98962.16;;;3.78;72.97
60089;BME280;45961;53.574;55.878;2023-11-21T06:07:52;98956.31;;;3.85;72.83
60089;BME280;45961;53.574;55.878;2023-11-21T06:09:11;98954.59;;;3.85;72.58
60089;BME280;45961;53.574;55.878;2023-11-21T06:10:31;98953.81;;;3.89;72.28
60089;BME280;45961;53.574;55.878;2023-11-21T06:11:50;98954.66;;;3.88;72.23
60089;BME280;45961;53.574;55.878;2023-11-21T06:13:09;98962.38;;;3.91;72.29
60089;BME280;45961;53.574;55.878;2023-11-21T06:14:29;98943.69;;;3.95;72.32
60089;BME280;45961;53.574;55.878;2023-11-21T06:15:50;98939.38;;;3.93;72.04
60089;BME280;45961;53.574;55.878;2023-11-21T06:17:09;98940.28;;;3.96;72.18
60089;BME280;45961;53.574;55.878;2023-11-21T06:18:29;98936.91;;;4.01;72.25
60089;BME280;45961;53.574;55.878;2023-11-21T06:19:49;98939.47;;;4.01;72.21
60089;BME280;45961;53.574;55.878;2023-11-21T06:21:11;98930.19;;;4.07;72.17
60089;BME280;45961;53.574;55.878;2023-11-21T06:22:30;98923.31;;;4.05;72.00
60089;BME280;45961;53.574;55.878;2023-11-21T06:23:50;98929.41;;;4.11;71.55
60089;BME280;45961;53.574;55.878;2023-11-21T06:25:12;98932.00;;;4.14;71.36
60089;BME280;45961;53.574;55.878;2023-11-21T06:26:31;98930.31;;;4.15;71.02
60089;BME280;45961;53.574;55.878;2023-11-21T06:27:51;98919.22;;;4.17;71.00
60089;BME280;45961;53.574;55.878;2023-11-21T06:29:11;98926.03;;;4.15;70.95
60089;BME280;45961;53.574;55.878;2023-11-21T06:30:31;98924.41;;;4.20;70.70
60089;BME280;45961;53.574;55.878;2023-11-21T06:31:51;98921.81;;;4.19;70.55
60089;BME280;45961;53.574;55.878;2023-11-21T06:33:13;98923.53;;;4.20;70.49
60089;BME280;45961;53.574;55.878;2023-11-21T06:34:32;98916.72;;;4.22;70.66
60089;BME280;45961;53.574;55.878;2023-11-21T06:35:52;98907.31;;;4.21;70.84
60089;BME280;45961;53.574;55.878;2023-11-21T06:37:11;98912.44;;;4.19;70.65
60089;BME280;45961;53.574;55.878;2023-11-21T06:38:30;98901.34;;;4.22;70.70
60089;BME280;45961;53.574;55.878;2023-11-21T06:39:51;98896.22;;;4.22;70.51
60089;BME280;45961;53.574;55.878;2023-11-21T06:41:13;98904.81;;;4.26;70.49
60089;BME280;45961;53.574;55.878;2023-11-21T06:42:34;98898.19;;;4.38;70.54
60089;BME280;45961;53.574;55.878;2023-11-21T06:43:54;98898.09;;;4.31;70.51
60089;BME280;45961;53.574;55.878;2023-11-21T06:45:13;98894.72;;;4.35;70.63
60089;BME280;45961;53.574;55.878;2023-11-21T06:46:34;98898.19;;;4.40;70.59
60089;BME280;45961;53.574;55.878;2023-11-21T06:47:53;98897.38;;;4.45;70.56
60089;BME280;45961;53.574;55.878;2023-11-21T06:49:12;98902.50;;;4.44;70.57
60089;BME280;45961;53.574;55.878;2023-11-21T06:50:32;98899.06;;;4.42;70.37
60089;BME280;45961;53.574;55.878;2023-11-21T06:51:52;98894.81;;;4.44;69.79
60089;BME280;45961;53.574;55.878;2023-11-21T06:53:13;98882.97;;;4.51;69.61
60089;BME280;45961;53.574;55.878;2023-11-21T06:54:32;98886.41;;;4.56;69.61
60089;BME280;45961;53.574;55.878;2023-11-21T06:55:52;98891.59;;;4.59;69.44
60089;BME280;45961;53.574;55.878;2023-11-21T06:57:12;98891.50;;;4.51;69.56
60089;BME280;45961;53.574;55.878;2023-11-21T06:58:32;98879.50;;;4.50;68.99
60089;BME280;45961;53.574;55.878;2023-11-21T06:59:52;98887.38;;;4.62;68.67
60089;BME280;45961;53.574;55.878;2023-11-21T07:01:11;98877.91;;;4.58;68.52
60089;BME280;45961;53.574;55.878;2023-11-21T07:02:31;98882.09;;;4.53;68.21
60089;BME280;45961;53.574;55.878;2023-11-21T07:03:50;98875.34;;;4.58;67.93